sensor_id;sensor_type;location;lat;lon;timestamp;P1;durP1;ratioP1;P2;durP2;ratioP2
33094;SDS011;19459;53.044;8.910;2023-05-10T01:40:48;3.45;;;2.30;;
33094;SDS011;19459;53.044;8.910;2023-05-10T01:46:48;4.43;;;2.92;;
33094;SDS011;19459;53.044;8.910;2023-05-10T01:49:29;4.55;;;3.05;;
33094;SDS011;19459;53.044;8.910;2023-05-10T01:52:03;10.77;;;2.70;;
33094;SDS011;19459;53.044;8.910;2023-05-10T01:54:35;6.40;;;2.90;;
33094;SDS011;19459;53.044;8.910;2023-05-10T01:57:12;8.00;;;3.13;;
33094;SDS011;19459;53.044;8.910;2023-05-10T01:59:39;5.53;;;2.85;;
33094;SDS011;19459;53.044;8.910;2023-05-10T02:02:08;5.38;;;3.10;;
33094;SDS011;19459;53.044;8.910;2023-05-10T02:04:37;6.45;;;2.78;;
33094;SDS011;19459;53.044;8.910;2023-05-10T02:07:05;5.53;;;2.72;;
33094;SDS011;19459;53.044;8.910;2023-05-10T02:09:32;4.95;;;2.65;;
33094;SDS011;19459;53.044;8.910;2023-05-10T02:12:00;11.35;;;3.25;;
33094;SDS011;19459;53.044;8.910;2023-05-10T02:14:32;4.47;;;3.03;;
33094;SDS011;19459;53.044;8.910;2023-05-10T02:17:02;5.18;;;3.50;;
33094;SDS011;19459;53.044;8.910;2023-05-10T02:19:30;4.35;;;3.08;;
33094;SDS011;19459;53.044;8.910;2023-05-10T02:21:58;6.72;;;3.42;;
33094;SDS011;19459;53.044;8.910;2023-05-10T02:24:25;6.65;;;3.28;;
33094;SDS011;19459;53.044;8.910;2023-05-10T02:26:53;5.72;;;3.47;;
33094;SDS011;19459;53.044;8.910;2023-05-10T02:29:20;7.95;;;3.28;;
33094;SDS011;19459;53.044;8.910;2023-05-10T02:31:52;6.72;;;3.10;;
33094;SDS011;19459;53.044;8.910;2023-05-10T02:34:21;5.18;;;3.03;;
33094;SDS011;19459;53.044;8.910;2023-05-10T02:36:48;6.05;;;3.00;;
33094;SDS011;19459;53.044;8.910;2023-05-10T02:39:15;11.20;;;3.10;;
33094;SDS011;19459;53.044;8.910;2023-05-10T02:41:44;5.10;;;3.47;;
33094;SDS011;19459;53.044;8.910;2023-05-10T02:44:14;4.47;;;3.45;;
33094;SDS011;19459;53.044;8.910;2023-05-10T02:46:43;3.42;;;2.95;;
33094;SDS011;19459;53.044;8.910;2023-05-10T02:49:09;7.57;;;3.22;;
33094;SDS011;19459;53.044;8.910;2023-05-10T02:51:35;10.23;;;3.80;;
33094;SDS011;19459;53.044;8.910;2023-05-10T02:54:20;5.18;;;3.78;;
33094;SDS011;19459;53.044;8.910;2023-05-10T02:56:56;5.57;;;3.85;;
33094;SDS011;19459;53.044;8.910;2023-05-10T02:59:26;9.45;;;3.63;;
33094;SDS011;19459;53.044;8.910;2023-05-10T03:01:52;9.30;;;3.95;;
33094;SDS011;19459;53.044;8.910;2023-05-10T03:04:18;4.85;;;3.38;;
33094;SDS011;19459;53.044;8.910;2023-05-10T03:06:44;6.28;;;3.65;;
33094;SDS011;19459;53.044;8.910;2023-05-10T03:09:10;7.22;;;4.35;;
33094;SDS011;19459;53.044;8.910;2023-05-10T03:11:47;6.85;;;3.28;;
33094;SDS011;19459;53.044;8.910;2023-05-10T03:20:10;5.75;;;3.72;;
33094;SDS011;19459;53.044;8.910;2023-05-10T03:22:46;7.97;;;3.40;;
33094;SDS011;19459;53.044;8.910;2023-05-10T03:25:16;4.95;;;3.22;;
33094;SDS011;19459;53.044;8.910;2023-05-10T03:27:46;3.95;;;3.25;;
33094;SDS011;19459;53.044;8.910;2023-05-10T03:30:13;8.30;;;2.97;;
33094;SDS011;19459;53.044;8.910;2023-05-10T03:32:39;6.63;;;4.07;;
33094;SDS011;19459;53.044;8.910;2023-05-10T03:35:08;5.40;;;3.97;;
33094;SDS011;19459;53.044;8.910;2023-05-10T03:37:35;10.75;;;4.65;;
33094;SDS011;19459;53.044;8.910;2023-05-10T03:40:01;7.55;;;3.95;;
33094;SDS011;19459;53.044;8.910;2023-05-10T03:42:28;5.38;;;3.85;;
33094;SDS011;19459;53.044;8.910;2023-05-10T03:44:54;8.07;;;3.83;;
33094;SDS011;19459;53.044;8.910;2023-05-10T03:47:20;10.02;;;4.15;;
33094;SDS011;19459;53.044;8.910;2023-05-10T03:49:46;8.75;;;3.88;;
33094;SDS011;19459;53.044;8.910;2023-05-10T03:52:12;7.63;;;4.10;;
33094;SDS011;19459;53.044;8.910;2023-05-10T03:54:37;4.93;;;3.95;;
33094;SDS011;19459;53.044;8.910;2023-05-10T03:57:03;7.88;;;4.32;;
33094;SDS011;19459;53.044;8.910;2023-05-10T03:59:29;6.93;;;4.40;;
33094;SDS011;19459;53.044;8.910;2023-05-10T04:01:55;7.40;;;4.40;;
33094;SDS011;19459;53.044;8.910;2023-05-10T04:04:21;9.80;;;4.90;;
33094;SDS011;19459;53.044;8.910;2023-05-10T04:06:48;6.82;;;4.78;;
33094;SDS011;19459;53.044;8.910;2023-05-10T04:09:14;6.85;;;3.95;;
33094;SDS011;19459;53.044;8.910;2023-05-10T04:11:40;12.27;;;5.65;;
33094;SDS011;19459;53.044;8.910;2023-05-10T04:14:06;8.73;;;4.63;;
33094;SDS011;19459;53.044;8.910;2023-05-10T04:16:31;5.97;;;4.60;;
33094;SDS011;19459;53.044;8.910;2023-05-10T04:18:57;6.85;;;5.35;;
33094;SDS011;19459;53.044;8.910;2023-05-10T04:21:23;8.10;;;5.28;;
33094;SDS011;19459;53.044;8.910;2023-05-10T04:23:49;10.77;;;4.90;;
33094;SDS011;19459;53.044;8.910;2023-05-10T04:26:15;6.53;;;5.30;;
33094;SDS011;19459;53.044;8.910;2023-05-10T04:28:41;9.18;;;5.93;;
33094;SDS011;19459;53.044;8.910;2023-05-10T04:31:07;7.72;;;5.50;;
33094;SDS011;19459;53.044;8.910;2023-05-10T04:33:35;7.03;;;5.13;;
33094;SDS011;19459;53.044;8.910;2023-05-10T04:36:01;7.35;;;4.68;;
33094;SDS011;19459;53.044;8.910;2023-05-10T04:38:28;7.93;;;5.07;;
33094;SDS011;19459;53.044;8.910;2023-05-10T04:40:54;8.68;;;5.40;;
33094;SDS011;19459;53.044;8.910;2023-05-10T04:43:29;7.47;;;4.85;;
33094;SDS011;19459;53.044;8.910;2023-05-10T04:45:56;10.55;;;5.93;;
33094;SDS011;19459;53.044;8.910;2023-05-10T04:48:22;9.63;;;6.20;;
33094;SDS011;19459;53.044;8.910;2023-05-10T04:50:48;8.65;;;5.35;;
33094;SDS011;19459;53.044;8.910;2023-05-10T04:53:13;8.93;;;6.18;;
33094;SDS011;19459;53.044;8.910;2023-05-10T04:55:39;12.48;;;6.75;;
33094;SDS011;19459;53.044;8.910;2023-05-10T04:58:05;14.23;;;6.47;;
33094;SDS011;19459;53.044;8.910;2023-05-10T05:00:31;9.40;;;6.13;;
33094;SDS011;19459;53.044;8.910;2023-05-10T05:02:58;9.00;;;6.85;;
33094;SDS011;19459;53.044;8.910;2023-05-10T05:05:24;11.10;;;7.03;;
33094;SDS011;19459;53.044;8.910;2023-05-10T05:07:50;10.95;;;6.75;;
33094;SDS011;19459;53.044;8.910;2023-05-10T05:10:16;7.60;;;6.70;;
33094;SDS011;19459;53.044;8.910;2023-05-10T05:12:42;11.10;;;6.82;;
33094;SDS011;19459;53.044;8.910;2023-05-10T05:15:08;11.38;;;7.18;;
33094;SDS011;19459;53.044;8.910;2023-05-10T05:17:34;9.00;;;7.20;;
33094;SDS011;19459;53.044;8.910;2023-05-10T05:20:01;8.95;;;7.30;;
33094;SDS011;19459;53.044;8.910;2023-05-10T05:22:27;11.48;;;7.30;;
33094;SDS011;19459;53.044;8.910;2023-05-10T05:24:53;12.10;;;7.68;;
33094;SDS011;19459;53.044;8.910;2023-05-10T05:27:20;12.25;;;7.78;;
33094;SDS011;19459;53.044;8.910;2023-05-10T05:29:49;12.57;;;7.25;;
33094;SDS011;19459;53.044;8.910;2023-05-10T05:32:18;10.65;;;7.03;;
33094;SDS011;19459;53.044;8.910;2023-05-10T05:34:44;10.02;;;6.75;;
33094;SDS011;19459;53.044;8.910;2023-05-10T05:37:14;14.35;;;7.57;;
33094;SDS011;19459;53.044;8.910;2023-05-10T05:39:41;17.13;;;7.47;;
33094;SDS011;19459;53.044;8.910;2023-05-10T05:42:08;13.25;;;8.45;;
33094;SDS011;19459;53.044;8.910;2023-05-10T05:44:34;12.95;;;8.93;;
33094;SDS011;19459;53.044;8.910;2023-05-10T05:47:00;11.85;;;8.18;;
33094;SDS011;19459;53.044;8.910;2023-05-10T05:49:26;11.10;;;7.57;;
33094;SDS011;19459;53.044;8.910;2023-05-10T05:51:52;17.00;;;9.00;;
33094;SDS011;19459;53.044;8.910;2023-05-10T05:54:18;13.13;;;8.80;;
33094;SDS011;19459;53.044;8.910;2023-05-10T05:56:44;14.70;;;9.43;;
33094;SDS011;19459;53.044;8.910;2023-05-10T05:59:10;12.30;;;9.30;;
33094;SDS011;19459;53.044;8.910;2023-05-10T06:01:36;12.27;;;8.85;;
33094;SDS011;19459;53.044;8.910;2023-05-10T06:04:02;20.02;;;9.25;;
33094;SDS011;19459;53.044;8.910;2023-05-10T06:06:28;18.05;;;8.55;;
33094;SDS011;19459;53.044;8.910;2023-05-10T06:08:54;13.05;;;8.80;;
33094;SDS011;19459;53.044;8.910;2023-05-10T06:11:20;13.30;;;9.25;;
33094;SDS011;19459;53.044;8.910;2023-05-10T06:13:46;12.35;;;9.48;;
33094;SDS011;19459;53.044;8.910;2023-05-10T06:16:12;15.02;;;9.82;;
33094;SDS011;19459;53.044;8.910;2023-05-10T06:18:38;18.45;;;10.68;;
33094;SDS011;19459;53.044;8.910;2023-05-10T06:21:04;14.50;;;9.65;;
33094;SDS011;19459;53.044;8.910;2023-05-10T06:23:30;13.63;;;10.13;;
33094;SDS011;19459;53.044;8.910;2023-05-10T06:25:56;13.10;;;9.88;;
33094;SDS011;19459;53.044;8.910;2023-05-10T06:28:22;17.00;;;10.27;;
33094;SDS011;19459;53.044;8.910;2023-05-10T06:30:47;21.63;;;10.18;;
33094;SDS011;19459;53.044;8.910;2023-05-10T06:33:13;18.63;;;9.30;;
33094;SDS011;19459;53.044;8.910;2023-05-10T06:35:40;14.80;;;10.38;;
33094;SDS011;19459;53.044;8.910;2023-05-10T06:38:06;16.02;;;10.75;;
33094;SDS011;19459;53.044;8.910;2023-05-10T06:40:32;18.42;;;11.15;;
33094;SDS011;19459;53.044;8.910;2023-05-10T06:42:58;20.98;;;12.48;;
33094;SDS011;19459;53.044;8.910;2023-05-10T06:45:24;15.73;;;10.93;;
33094;SDS011;19459;53.044;8.910;2023-05-10T06:47:49;14.93;;;10.55;;
33094;SDS011;19459;53.044;8.910;2023-05-10T06:50:15;18.80;;;11.38;;
33094;SDS011;19459;53.044;8.910;2023-05-10T06:52:41;18.10;;;11.20;;
33094;SDS011;19459;53.044;8.910;2023-05-10T06:55:07;19.00;;;11.32;;
33094;SDS011;19459;53.044;8.910;2023-05-10T06:57:34;15.13;;;11.40;;
33094;SDS011;19459;53.044;8.910;2023-05-10T07:00:00;14.98;;;11.55;;
33094;SDS011;19459;53.044;8.910;2023-05-10T07:02:26;18.05;;;12.23;;
33094;SDS011;19459;53.044;8.910;2023-05-10T07:04:52;18.25;;;12.20;;
33094;SDS011;19459;53.044;8.910;2023-05-10T07:07:18;18.85;;;12.95;;
33094;SDS011;19459;53.044;8.910;2023-05-10T07:09:44;20.52;;;12.88;;
33094;SDS011;19459;53.044;8.910;2023-05-10T07:12:10;13.60;;;10.93;;
33094;SDS011;19459;53.044;8.910;2023-05-10T07:14:36;20.65;;;13.95;;
33094;SDS011;19459;53.044;8.910;2023-05-10T07:17:02;17.13;;;13.10;;
33094;SDS011;19459;53.044;8.910;2023-05-10T07:19:27;16.08;;;11.73;;
33094;SDS011;19459;53.044;8.910;2023-05-10T07:21:54;18.50;;;11.10;;
33094;SDS011;19459;53.044;8.910;2023-05-10T07:24:20;19.55;;;13.15;;
33094;SDS011;19459;53.044;8.910;2023-05-10T07:26:46;17.95;;;12.88;;
33094;SDS011;19459;53.044;8.910;2023-05-10T07:29:12;20.13;;;12.80;;
33094;SDS011;19459;53.044;8.910;2023-05-10T07:31:37;18.60;;;13.43;;
33094;SDS011;19459;53.044;8.910;2023-05-10T07:34:03;16.23;;;13.57;;
33094;SDS011;19459;53.044;8.910;2023-05-10T07:36:29;23.17;;;14.25;;
33094;SDS011;19459;53.044;8.910;2023-05-10T07:38:55;18.70;;;13.02;;
33094;SDS011;19459;53.044;8.910;2023-05-10T07:41:22;20.88;;;13.50;;
33094;SDS011;19459;53.044;8.910;2023-05-10T07:43:48;17.77;;;12.85;;
33094;SDS011;19459;53.044;8.910;2023-05-10T07:46:14;18.45;;;13.27;;
33094;SDS011;19459;53.044;8.910;2023-05-10T07:48:40;17.40;;;12.88;;
33094;SDS011;19459;53.044;8.910;2023-05-10T07:51:06;16.17;;;13.30;;
33094;SDS011;19459;53.044;8.910;2023-05-10T07:53:34;17.25;;;12.60;;
33094;SDS011;19459;53.044;8.910;2023-05-10T07:56:19;15.30;;;12.82;;
33094;SDS011;19459;53.044;8.910;2023-05-10T07:58:55;17.65;;;13.85;;
33094;SDS011;19459;53.044;8.910;2023-05-10T08:01:22;18.98;;;14.20;;
33094;SDS011;19459;53.044;8.910;2023-05-10T08:03:48;17.98;;;13.23;;
33094;SDS011;19459;53.044;8.910;2023-05-10T08:06:16;17.73;;;14.50;;
33094;SDS011;19459;53.044;8.910;2023-05-10T08:08:43;17.92;;;12.82;;
33094;SDS011;19459;53.044;8.910;2023-05-10T08:11:14;17.27;;;12.52;;
33094;SDS011;19459;53.044;8.910;2023-05-10T08:13:44;18.23;;;12.73;;
33094;SDS011;19459;53.044;8.910;2023-05-10T08:16:10;18.95;;;14.20;;
33094;SDS011;19459;53.044;8.910;2023-05-10T08:18:36;17.73;;;11.70;;
33094;SDS011;19459;53.044;8.910;2023-05-10T08:21:03;18.80;;;12.10;;
33094;SDS011;19459;53.044;8.910;2023-05-10T08:23:30;17.98;;;12.07;;
33094;SDS011;19459;53.044;8.910;2023-05-10T08:25:56;20.83;;;14.50;;
33094;SDS011;19459;53.044;8.910;2023-05-10T08:28:21;16.25;;;11.60;;
33094;SDS011;19459;53.044;8.910;2023-05-10T08:30:47;13.95;;;10.38;;
33094;SDS011;19459;53.044;8.910;2023-05-10T08:33:15;13.80;;;10.50;;
33094;SDS011;19459;53.044;8.910;2023-05-10T08:35:42;12.05;;;9.07;;
33094;SDS011;19459;53.044;8.910;2023-05-10T08:38:08;7.38;;;6.32;;
33094;SDS011;19459;53.044;8.910;2023-05-10T08:40:33;8.55;;;6.05;;
33094;SDS011;19459;53.044;8.910;2023-05-10T08:43:05;8.20;;;6.50;;
33094;SDS011;19459;53.044;8.910;2023-05-10T08:45:37;7.97;;;5.95;;
33094;SDS011;19459;53.044;8.910;2023-05-10T08:48:09;7.43;;;6.50;;
33094;SDS011;19459;53.044;8.910;2023-05-10T08:50:36;8.30;;;7.40;;
33094;SDS011;19459;53.044;8.910;2023-05-10T08:53:05;8.52;;;7.43;;
33094;SDS011;19459;53.044;8.910;2023-05-10T08:55:35;9.80;;;8.10;;
33094;SDS011;19459;53.044;8.910;2023-05-10T08:58:03;9.90;;;8.90;;
33094;SDS011;19459;53.044;8.910;2023-05-10T09:00:32;10.57;;;9.57;;
33094;SDS011;19459;53.044;8.910;2023-05-10T09:02:58;8.43;;;7.60;;
33094;SDS011;19459;53.044;8.910;2023-05-10T09:05:25;8.93;;;7.57;;
33094;SDS011;19459;53.044;8.910;2023-05-10T09:07:51;9.45;;;8.35;;
33094;SDS011;19459;53.044;8.910;2023-05-10T09:10:17;8.88;;;7.18;;
33094;SDS011;19459;53.044;8.910;2023-05-10T09:12:44;8.98;;;6.25;;
33094;SDS011;19459;53.044;8.910;2023-05-10T09:15:11;7.38;;;5.82;;
33094;SDS011;19459;53.044;8.910;2023-05-10T09:17:40;5.10;;;4.60;;
33094;SDS011;19459;53.044;8.910;2023-05-10T09:20:07;7.38;;;4.40;;
33094;SDS011;19459;53.044;8.910;2023-05-10T09:22:33;3.35;;;3.10;;
33094;SDS011;19459;53.044;8.910;2023-05-10T09:25:03;3.72;;;3.20;;
33094;SDS011;19459;53.044;8.910;2023-05-10T09:27:30;5.13;;;3.60;;
33094;SDS011;19459;53.044;8.910;2023-05-10T09:29:56;3.75;;;3.33;;
33094;SDS011;19459;53.044;8.910;2023-05-10T09:32:22;4.82;;;4.13;;
33094;SDS011;19459;53.044;8.910;2023-05-10T09:35:08;8.50;;;3.97;;
33094;SDS011;19459;53.044;8.910;2023-05-10T09:37:42;6.38;;;3.78;;
33094;SDS011;19459;53.044;8.910;2023-05-10T09:40:14;6.18;;;3.42;;
33094;SDS011;19459;53.044;8.910;2023-05-10T09:42:43;5.20;;;3.60;;
33094;SDS011;19459;53.044;8.910;2023-05-10T09:45:26;5.97;;;3.45;;
33094;SDS011;19459;53.044;8.910;2023-05-10T09:47:54;5.47;;;3.28;;
33094;SDS011;19459;53.044;8.910;2023-05-10T09:50:21;5.30;;;3.90;;
33094;SDS011;19459;53.044;8.910;2023-05-10T09:52:48;4.53;;;3.78;;
33094;SDS011;19459;53.044;8.910;2023-05-10T09:55:16;6.47;;;3.97;;
33094;SDS011;19459;53.044;8.910;2023-05-10T09:57:48;5.95;;;4.22;;
33094;SDS011;19459;53.044;8.910;2023-05-10T10:00:24;5.80;;;4.72;;
33094;SDS011;19459;53.044;8.910;2023-05-10T10:02:54;4.90;;;4.40;;
33094;SDS011;19459;53.044;8.910;2023-05-10T10:05:27;4.40;;;3.78;;
33094;SDS011;19459;53.044;8.910;2023-05-10T10:08:02;4.47;;;3.92;;
33094;SDS011;19459;53.044;8.910;2023-05-10T10:10:30;4.70;;;4.00;;
33094;SDS011;19459;53.044;8.910;2023-05-10T10:12:57;5.15;;;4.18;;
33094;SDS011;19459;53.044;8.910;2023-05-10T10:15:24;6.00;;;5.40;;
33094;SDS011;19459;53.044;8.910;2023-05-10T10:17:51;6.80;;;4.60;;
33094;SDS011;19459;53.044;8.910;2023-05-10T10:20:19;4.13;;;3.72;;
33094;SDS011;19459;53.044;8.910;2023-05-10T10:22:47;6.28;;;4.30;;
33094;SDS011;19459;53.044;8.910;2023-05-10T10:25:14;7.57;;;4.30;;
33094;SDS011;19459;53.044;8.910;2023-05-10T10:36:29;5.72;;;3.15;;
33094;SDS011;19459;53.044;8.910;2023-05-10T10:38:59;4.03;;;3.08;;
33094;SDS011;19459;53.044;8.910;2023-05-10T10:41:27;5.78;;;3.55;;
33094;SDS011;19459;53.044;8.910;2023-05-10T10:52:31;3.58;;;3.10;;
33094;SDS011;19459;53.044;8.910;2023-05-10T10:55:08;3.47;;;2.83;;
33094;SDS011;19459;53.044;8.910;2023-05-10T10:57:48;4.25;;;3.00;;
33094;SDS011;19459;53.044;8.910;2023-05-10T11:00:21;2.95;;;2.65;;
33094;SDS011;19459;53.044;8.910;2023-05-10T11:02:58;4.30;;;2.70;;
33094;SDS011;19459;53.044;8.910;2023-05-10T11:05:50;5.63;;;2.63;;
33094;SDS011;19459;53.044;8.910;2023-05-10T11:08:30;3.25;;;2.95;;
33094;SDS011;19459;53.044;8.910;2023-05-10T11:13:34;4.63;;;3.30;;
33094;SDS011;19459;53.044;8.910;2023-05-10T11:18:51;3.30;;;2.25;;
33094;SDS011;19459;53.044;8.910;2023-05-10T11:21:27;5.22;;;2.55;;
33094;SDS011;19459;53.044;8.910;2023-05-10T11:23:56;3.45;;;2.97;;
33094;SDS011;19459;53.044;8.910;2023-05-10T11:26:24;5.95;;;3.08;;
33094;SDS011;19459;53.044;8.910;2023-05-10T11:28:59;4.28;;;2.90;;
33094;SDS011;19459;53.044;8.910;2023-05-10T11:31:27;3.25;;;2.83;;
33094;SDS011;19459;53.044;8.910;2023-05-10T11:33:55;3.15;;;2.85;;
33094;SDS011;19459;53.044;8.910;2023-05-10T11:36:29;8.65;;;3.15;;
33094;SDS011;19459;53.044;8.910;2023-05-10T11:38:59;4.63;;;3.38;;
33094;SDS011;19459;53.044;8.910;2023-05-10T11:41:27;3.95;;;3.20;;
33094;SDS011;19459;53.044;8.910;2023-05-10T11:43:55;3.95;;;2.88;;
33094;SDS011;19459;53.044;8.910;2023-05-10T11:46:23;4.43;;;2.63;;
33094;SDS011;19459;53.044;8.910;2023-05-10T11:48:52;2.10;;;1.90;;
33094;SDS011;19459;53.044;8.910;2023-05-10T11:51:22;3.08;;;2.20;;
33094;SDS011;19459;53.044;8.910;2023-05-10T11:53:50;3.05;;;2.25;;
33094;SDS011;19459;53.044;8.910;2023-05-10T11:56:19;4.68;;;2.15;;
33094;SDS011;19459;53.044;8.910;2023-05-10T11:58:53;2.28;;;1.92;;
33094;SDS011;19459;53.044;8.910;2023-05-10T12:01:21;4.13;;;2.78;;
33094;SDS011;19459;53.044;8.910;2023-05-10T12:03:48;3.25;;;2.28;;
33094;SDS011;19459;53.044;8.910;2023-05-10T12:06:16;3.53;;;1.80;;
33094;SDS011;19459;53.044;8.910;2023-05-10T12:08:46;1.92;;;1.67;;
33094;SDS011;19459;53.044;8.910;2023-05-10T12:11:13;1.75;;;1.65;;
33094;SDS011;19459;53.044;8.910;2023-05-10T12:13:43;1.80;;;1.52;;
33094;SDS011;19459;53.044;8.910;2023-05-10T12:16:16;0.50;;;0.50;;
33094;SDS011;19459;53.044;8.910;2023-05-10T12:18:50;0.80;;;0.50;;
33094;SDS011;19459;53.044;8.910;2023-05-10T12:21:19;1.67;;;0.70;;
33094;SDS011;19459;53.044;8.910;2023-05-10T12:23:46;2.90;;;0.43;;
33094;SDS011;19459;53.044;8.910;2023-05-10T12:26:17;0.63;;;0.50;;
33094;SDS011;19459;53.044;8.910;2023-05-10T12:28:46;0.52;;;0.52;;
33094;SDS011;19459;53.044;8.910;2023-05-10T12:31:12;1.15;;;0.90;;
33094;SDS011;19459;53.044;8.910;2023-05-10T12:33:39;1.17;;;1.08;;
33094;SDS011;19459;53.044;8.910;2023-05-10T12:36:07;0.85;;;0.82;;
33094;SDS011;19459;53.044;8.910;2023-05-10T12:38:40;1.10;;;0.85;;
33094;SDS011;19459;53.044;8.910;2023-05-10T12:41:13;3.00;;;1.17;;
33094;SDS011;19459;53.044;8.910;2023-05-10T12:43:43;1.10;;;1.00;;
33094;SDS011;19459;53.044;8.910;2023-05-10T12:46:14;2.08;;;1.33;;
33094;SDS011;19459;53.044;8.910;2023-05-10T12:48:43;0.93;;;0.65;;
33094;SDS011;19459;53.044;8.910;2023-05-10T12:51:12;1.58;;;0.95;;
33094;SDS011;19459;53.044;8.910;2023-05-10T12:53:40;0.75;;;0.45;;
33094;SDS011;19459;53.044;8.910;2023-05-10T12:56:06;0.70;;;0.70;;
33094;SDS011;19459;53.044;8.910;2023-05-10T12:58:32;3.30;;;0.88;;
33094;SDS011;19459;53.044;8.910;2023-05-10T13:00:59;0.68;;;0.60;;
33094;SDS011;19459;53.044;8.910;2023-05-10T13:03:25;2.22;;;0.80;;
33094;SDS011;19459;53.044;8.910;2023-05-10T13:05:50;0.70;;;0.70;;
33094;SDS011;19459;53.044;8.910;2023-05-10T13:08:16;1.55;;;1.15;;
33094;SDS011;19459;53.044;8.910;2023-05-10T13:10:42;0.98;;;0.90;;
33094;SDS011;19459;53.044;8.910;2023-05-10T13:13:08;2.10;;;1.27;;
33094;SDS011;19459;53.044;8.910;2023-05-10T13:15:34;1.60;;;1.33;;
33094;SDS011;19459;53.044;8.910;2023-05-10T13:18:00;2.90;;;1.20;;
33094;SDS011;19459;53.044;8.910;2023-05-10T13:20:26;1.15;;;1.05;;
33094;SDS011;19459;53.044;8.910;2023-05-10T13:22:52;2.15;;;1.58;;
33094;SDS011;19459;53.044;8.910;2023-05-10T13:25:18;3.03;;;1.83;;
33094;SDS011;19459;53.044;8.910;2023-05-10T13:27:46;1.38;;;1.27;;
33094;SDS011;19459;53.044;8.910;2023-05-10T13:30:12;2.95;;;1.73;;
33094;SDS011;19459;53.044;8.910;2023-05-10T13:32:38;3.92;;;1.95;;
33094;SDS011;19459;53.044;8.910;2023-05-10T13:35:04;4.65;;;1.55;;
33094;SDS011;19459;53.044;8.910;2023-05-10T13:37:31;2.03;;;1.70;;
33094;SDS011;19459;53.044;8.910;2023-05-10T13:40:00;2.30;;;1.80;;
33094;SDS011;19459;53.044;8.910;2023-05-10T13:42:26;2.53;;;1.70;;
33094;SDS011;19459;53.044;8.910;2023-05-10T13:44:52;7.57;;;2.35;;
33094;SDS011;19459;53.044;8.910;2023-05-10T13:47:18;2.95;;;1.92;;
33094;SDS011;19459;53.044;8.910;2023-05-10T13:49:43;3.88;;;1.98;;
33094;SDS011;19459;53.044;8.910;2023-05-10T13:52:09;1.88;;;1.52;;
33094;SDS011;19459;53.044;8.910;2023-05-10T13:54:35;3.80;;;1.90;;
33094;SDS011;19459;53.044;8.910;2023-05-10T13:57:02;2.03;;;1.83;;
33094;SDS011;19459;53.044;8.910;2023-05-10T13:59:29;2.05;;;1.85;;
33094;SDS011;19459;53.044;8.910;2023-05-10T14:01:56;8.90;;;2.65;;
33094;SDS011;19459;53.044;8.910;2023-05-10T14:04:23;2.35;;;2.00;;
33094;SDS011;19459;53.044;8.910;2023-05-10T14:06:49;2.05;;;1.65;;
33094;SDS011;19459;53.044;8.910;2023-05-10T14:09:15;3.20;;;2.67;;
33094;SDS011;19459;53.044;8.910;2023-05-10T14:11:41;4.05;;;2.40;;
33094;SDS011;19459;53.044;8.910;2023-05-10T14:14:08;4.05;;;2.13;;
33094;SDS011;19459;53.044;8.910;2023-05-10T14:16:34;2.55;;;2.20;;
33094;SDS011;19459;53.044;8.910;2023-05-10T14:19:00;2.97;;;1.58;;
33094;SDS011;19459;53.044;8.910;2023-05-10T14:21:26;2.47;;;1.80;;
33094;SDS011;19459;53.044;8.910;2023-05-10T14:23:54;2.22;;;1.77;;
33094;SDS011;19459;53.044;8.910;2023-05-10T14:26:20;4.45;;;2.00;;
33094;SDS011;19459;53.044;8.910;2023-05-10T14:28:46;2.15;;;1.65;;
33094;SDS011;19459;53.044;8.910;2023-05-10T14:31:12;2.08;;;1.85;;
33094;SDS011;19459;53.044;8.910;2023-05-10T14:33:39;4.72;;;2.05;;
33094;SDS011;19459;53.044;8.910;2023-05-10T14:36:06;2.33;;;1.92;;
33094;SDS011;19459;53.044;8.910;2023-05-10T14:38:32;1.30;;;1.20;;
33094;SDS011;19459;53.044;8.910;2023-05-10T14:40:58;2.15;;;1.92;;
33094;SDS011;19459;53.044;8.910;2023-05-10T14:43:24;1.67;;;1.52;;
33094;SDS011;19459;53.044;8.910;2023-05-10T14:45:49;1.55;;;1.45;;
33094;SDS011;19459;53.044;8.910;2023-05-10T14:48:15;2.17;;;1.98;;
33094;SDS011;19459;53.044;8.910;2023-05-10T14:50:42;1.83;;;1.63;;
33094;SDS011;19459;53.044;8.910;2023-05-10T14:53:09;2.03;;;1.55;;
33094;SDS011;19459;53.044;8.910;2023-05-10T14:55:35;2.22;;;1.60;;
33094;SDS011;19459;53.044;8.910;2023-05-10T14:58:04;3.38;;;1.98;;
33094;SDS011;19459;53.044;8.910;2023-05-10T15:00:30;2.60;;;2.17;;
33094;SDS011;19459;53.044;8.910;2023-05-10T15:02:56;3.15;;;1.95;;
33094;SDS011;19459;53.044;8.910;2023-05-10T15:05:22;3.58;;;2.20;;
33094;SDS011;19459;53.044;8.910;2023-05-10T15:07:48;2.00;;;1.67;;
33094;SDS011;19459;53.044;8.910;2023-05-10T15:10:14;1.98;;;1.77;;
33094;SDS011;19459;53.044;8.910;2023-05-10T15:12:40;3.22;;;2.13;;
33094;SDS011;19459;53.044;8.910;2023-05-10T15:15:06;3.35;;;2.90;;
33094;SDS011;19459;53.044;8.910;2023-05-10T15:17:33;3.00;;;2.40;;
33094;SDS011;19459;53.044;8.910;2023-05-10T15:19:58;7.13;;;3.00;;
33094;SDS011;19459;53.044;8.910;2023-05-10T15:22:25;5.47;;;2.85;;
33094;SDS011;19459;53.044;8.910;2023-05-10T15:24:53;5.20;;;2.42;;
33094;SDS011;19459;53.044;8.910;2023-05-10T15:27:19;3.72;;;2.72;;
33094;SDS011;19459;53.044;8.910;2023-05-10T15:29:45;4.72;;;2.35;;
33094;SDS011;19459;53.044;8.910;2023-05-10T15:32:11;1.90;;;1.80;;
33094;SDS011;19459;53.044;8.910;2023-05-10T15:34:37;3.45;;;2.47;;
33094;SDS011;19459;53.044;8.910;2023-05-10T15:37:02;2.67;;;1.95;;
33094;SDS011;19459;53.044;8.910;2023-05-10T15:39:28;2.83;;;1.85;;
33094;SDS011;19459;53.044;8.910;2023-05-10T15:41:57;1.83;;;1.70;;
33094;SDS011;19459;53.044;8.910;2023-05-10T15:44:22;3.58;;;1.92;;
33094;SDS011;19459;53.044;8.910;2023-05-10T15:46:49;6.03;;;1.80;;
33094;SDS011;19459;53.044;8.910;2023-05-10T15:49:15;2.67;;;1.50;;
33094;SDS011;19459;53.044;8.910;2023-05-10T15:51:41;2.20;;;1.95;;
33094;SDS011;19459;53.044;8.910;2023-05-10T15:54:06;2.05;;;1.73;;
33094;SDS011;19459;53.044;8.910;2023-05-10T15:56:33;1.65;;;1.23;;
33094;SDS011;19459;53.044;8.910;2023-05-10T15:58:59;2.20;;;1.30;;
33094;SDS011;19459;53.044;8.910;2023-05-10T16:01:25;2.47;;;1.58;;
33094;SDS011;19459;53.044;8.910;2023-05-10T16:03:52;2.97;;;1.95;;
33094;SDS011;19459;53.044;8.910;2023-05-10T16:06:18;8.52;;;1.88;;
33094;SDS011;19459;53.044;8.910;2023-05-10T16:08:43;4.18;;;1.63;;
33094;SDS011;19459;53.044;8.910;2023-05-10T16:11:09;3.30;;;1.85;;
33094;SDS011;19459;53.044;8.910;2023-05-10T16:13:35;2.53;;;1.40;;
33094;SDS011;19459;53.044;8.910;2023-05-10T16:16:01;1.70;;;1.48;;
33094;SDS011;19459;53.044;8.910;2023-05-10T16:18:27;3.92;;;2.00;;
33094;SDS011;19459;53.044;8.910;2023-05-10T16:20:52;3.45;;;1.45;;
33094;SDS011;19459;53.044;8.910;2023-05-10T16:23:18;2.65;;;1.50;;
33094;SDS011;19459;53.044;8.910;2023-05-10T16:25:44;3.10;;;1.80;;
33094;SDS011;19459;53.044;8.910;2023-05-10T16:28:14;2.28;;;1.20;;
33094;SDS011;19459;53.044;8.910;2023-05-10T16:30:39;1.95;;;1.20;;
33094;SDS011;19459;53.044;8.910;2023-05-10T16:33:05;1.88;;;1.20;;
33094;SDS011;19459;53.044;8.910;2023-05-10T16:35:31;3.25;;;1.30;;
33094;SDS011;19459;53.044;8.910;2023-05-10T16:37:57;1.92;;;1.58;;
33094;SDS011;19459;53.044;8.910;2023-05-10T16:40:22;2.13;;;1.42;;
33094;SDS011;19459;53.044;8.910;2023-05-10T16:42:48;1.63;;;1.50;;
33094;SDS011;19459;53.044;8.910;2023-05-10T16:45:14;1.10;;;1.00;;
33094;SDS011;19459;53.044;8.910;2023-05-10T16:47:40;1.80;;;1.40;;
33094;SDS011;19459;53.044;8.910;2023-05-10T16:50:07;1.67;;;1.27;;
33094;SDS011;19459;53.044;8.910;2023-05-10T16:52:33;1.35;;;1.20;;
33094;SDS011;19459;53.044;8.910;2023-05-10T16:55:00;3.33;;;1.70;;
33094;SDS011;19459;53.044;8.910;2023-05-10T16:57:27;4.22;;;1.80;;